sensor_id;sensor_type;location;lat;lon;timestamp;pressure;altitude;pressure_sealevel;temperature;humidity
75594;BME280;64176;49.156;7.810;2023-11-18T00:02:09;100031.16;;;5.64;100.00
75594;BME280;64176;49.156;7.810;2023-11-18T00:04:55;100040.03;;;5.72;100.00
75594;BME280;64176;49.156;7.810;2023-11-18T00:07:39;100034.03;;;5.72;100.00
75594;BME280;64176;49.156;7.810;2023-11-18T00:10:26;100041.59;;;5.69;100.00
75594;BME280;64176;49.156;7.810;2023-11-18T00:13:10;100041.00;;;5.54;100.00
75594;BME280;64176;49.156;7.810;2023-11-18T00:15:54;100038.50;;;5.33;100.00
75594;BME280;64176;49.156;7.810;2023-11-18T00:18:39;100025.59;;;5.30;100.00
75594;BME280;64176;49.156;7.810;2023-11-18T00:21:23;100037.53;;;5.29;100.00
75594;BME280;64176;49.156;7.810;2023-11-18T00:24:07;100045.69;;;5.19;100.00
75594;BME280;64176;49.156;7.810;2023-11-18T00:26:56;100040.91;;;5.28;100.00
75594;BME280;64176;49.156;7.810;2023-11-18T00:29:43;100039.69;;;5.19;100.00
75594;BME280;64176;49.156;7.810;2023-11-18T00:32:31;100035.59;;;5.24;100.00
75594;BME280;64176;49.156;7.810;2023-11-18T00:35:15;100034.13;;;5.30;100.00
75594;BME280;64176;49.156;7.810;2023-11-18T00:38:02;100032.56;;;5.34;100.00
75594;BME280;64176;49.156;7.810;2023-11-18T00:40:49;100033.50;;;5.36;100.00
75594;BME280;64176;49.156;7.810;2023-11-18T00:43:33;100027.56;;;5.15;100.00
75594;BME280;64176;49.156;7.810;2023-11-18T00:46:17;100032.81;;;5.18;100.00
75594;BME280;64176;49.156;7.810;2023-11-18T00:49:02;100027.97;;;5.25;100.00
75594;BME280;64176;49.156;7.810;2023-11-18T00:51:49;100027.97;;;5.25;100.00
75594;BME280;64176;49.156;7.810;2023-11-18T00:54:34;100029.53;;;5.22;100.00
75594;BME280;64176;49.156;7.810;2023-11-18T00:57:21;100039.16;;;5.27;100.00
75594;BME280;64176;49.156;7.810;2023-11-18T01:00:11;100031.63;;;5.32;100.00
75594;BME280;64176;49.156;7.810;2023-11-18T01:02:57;100036.13;;;5.37;100.00
75594;BME280;64176;49.156;7.810;2023-11-18T01:05:41;100047.41;;;5.41;100.00
75594;BME280;64176;49.156;7.810;2023-11-18T01:08:25;100034.31;;;5.35;100.00
75594;BME280;64176;49.156;7.810;2023-11-18T01:11:09;100043.47;;;5.28;100.00
75594;BME280;64176;49.156;7.810;2023-11-18T01:13:55;100048.53;;;5.27;100.00
75594;BME280;64176;49.156;7.810;2023-11-18T01:16:42;100042.00;;;5.35;100.00
75594;BME280;64176;49.156;7.810;2023-11-18T01:19:28;100051.16;;;5.28;100.00
75594;BME280;64176;49.156;7.810;2023-11-18T01:22:12;100041.78;;;5.29;100.00
75594;BME280;64176;49.156;7.810;2023-11-18T01:24:57;100036.47;;;5.24;100.00
75594;BME280;64176;49.156;7.810;2023-11-18T01:27:44;100029.19;;;5.35;100.00
75594;BME280;64176;49.156;7.810;2023-11-18T01:30:31;100015.78;;;5.42;100.00
75594;BME280;64176;49.156;7.810;2023-11-18T01:33:17;100023.13;;;5.33;100.00
75594;BME280;64176;49.156;7.810;2023-11-18T01:36:02;100019.13;;;5.39;100.00
75594;BME280;64176;49.156;7.810;2023-11-18T01:38:47;100016.09;;;5.49;100.00
75594;BME280;64176;49.156;7.810;2023-11-18T01:41:31;100018.66;;;5.49;100.00
75594;BME280;64176;49.156;7.810;2023-11-18T01:44:16;100030.00;;;5.56;100.00
75594;BME280;64176;49.156;7.810;2023-11-18T01:47:02;100035.25;;;5.59;100.00
75594;BME280;64176;49.156;7.810;2023-11-18T01:49:49;100038.44;;;5.52;100.00
75594;BME280;64176;49.156;7.810;2023-11-18T01:52:36;100040.13;;;5.53;100.00
75594;BME280;64176;49.156;7.810;2023-11-18T01:55:20;100038.69;;;5.60;100.00
75594;BME280;64176;49.156;7.810;2023-11-18T01:58:05;100041.00;;;5.52;100.00
75594;BME280;64176;49.156;7.810;2023-11-18T02:00:54;100044.59;;;5.57;100.00
75594;BME280;64176;49.156;7.810;2023-11-18T02:03:44;100040.31;;;5.58;100.00
75594;BME280;64176;49.156;7.810;2023-11-18T02:06:31;100047.81;;;5.53;100.00
75594;BME280;64176;49.156;7.810;2023-11-18T02:09:18;100045.41;;;5.56;100.00
75594;BME280;64176;49.156;7.810;2023-11-18T02:15:05;100057.41;;;5.57;100.00
75594;BME280;64176;49.156;7.810;2023-11-18T02:17:57;100051.19;;;5.51;100.00
75594;BME280;64176;49.156;7.810;2023-11-18T02:20:43;100045.41;;;5.56;100.00
75594;BME280;64176;49.156;7.810;2023-11-18T02:23:27;100046.34;;;5.58;100.00
75594;BME280;64176;49.156;7.810;2023-11-18T02:26:22;100042.00;;;5.57;100.00
75594;BME280;64176;49.156;7.810;2023-11-18T02:29:06;100040.06;;;5.50;100.00
75594;BME280;64176;49.156;7.810;2023-11-18T02:31:58;100027.63;;;5.38;100.00
75594;BME280;64176;49.156;7.810;2023-11-18T02:34:51;100032.91;;;5.43;100.00
75594;BME280;64176;49.156;7.810;2023-11-18T02:37:43;100034.03;;;5.49;100.00
75594;BME280;64176;49.156;7.810;2023-11-18T02:40:37;100023.78;;;5.49;100.00
75594;BME280;64176;49.156;7.810;2023-11-18T02:43:25;100029.06;;;5.54;100.00
75594;BME280;64176;49.156;7.810;2023-11-18T02:46:12;100033.97;;;5.48;100.00
75594;BME280;64176;49.156;7.810;2023-11-18T02:48:59;100028.97;;;5.51;100.00
75594;BME280;64176;49.156;7.810;2023-11-18T02:51:44;100030.88;;;5.57;100.00
75594;BME280;64176;49.156;7.810;2023-11-18T02:54:31;100031.88;;;5.60;100.00
75594;BME280;64176;49.156;7.810;2023-11-18T02:57:16;100018.59;;;5.48;100.00
75594;BME280;64176;49.156;7.810;2023-11-18T03:00:04;100017.94;;;5.54;100.00
75594;BME280;64176;49.156;7.810;2023-11-18T03:02:52;100007.66;;;5.52;100.00
75594;BME280;64176;49.156;7.810;2023-11-18T03:05:36;100010.91;;;5.48;100.00
75594;BME280;64176;49.156;7.810;2023-11-18T03:08:20;100021.38;;;5.54;100.00
75594;BME280;64176;49.156;7.810;2023-11-18T03:11:04;100031.47;;;5.49;100.00
75594;BME280;64176;49.156;7.810;2023-11-18T03:13:49;100040.91;;;5.51;100.00
75594;BME280;64176;49.156;7.810;2023-11-18T03:16:32;100041.53;;;5.45;100.00
75594;BME280;64176;49.156;7.810;2023-11-18T03:19:18;100042.69;;;5.53;100.00
75594;BME280;64176;49.156;7.810;2023-11-18T03:22:05;100036.00;;;5.34;100.00
75594;BME280;64176;49.156;7.810;2023-11-18T03:24:49;100052.56;;;5.42;100.00
75594;BME280;64176;49.156;7.810;2023-11-18T03:27:34;100039.56;;;5.38;100.00
75594;BME280;64176;49.156;7.810;2023-11-18T03:30:20;100043.22;;;5.44;100.00
75594;BME280;64176;49.156;7.810;2023-11-18T03:33:04;100039.09;;;5.48;100.00
75594;BME280;64176;49.156;7.810;2023-11-18T03:35:53;100033.72;;;5.42;100.00
75594;BME280;64176;49.156;7.810;2023-11-18T03:38:39;100038.03;;;5.43;100.00
75594;BME280;64176;49.156;7.810;2023-11-18T03:41:26;100017.31;;;5.37;100.00
75594;BME280;64176;49.156;7.810;2023-11-18T03:44:11;100035.66;;;5.47;100.00
75594;BME280;64176;49.156;7.810;2023-11-18T03:46:58;100027.78;;;5.43;100.00
75594;BME280;64176;49.156;7.810;2023-11-18T03:49:42;100041.88;;;5.54;100.00
75594;BME280;64176;49.156;7.810;2023-11-18T03:52:26;100028.72;;;5.45;100.00
75594;BME280;64176;49.156;7.810;2023-11-18T03:55:11;100040.53;;;5.41;100.00
75594;BME280;64176;49.156;7.810;2023-11-18T03:57:55;100045.00;;;5.45;100.00
75594;BME280;64176;49.156;7.810;2023-11-18T04:00:41;100044.09;;;5.45;100.00
75594;BME280;64176;49.156;7.810;2023-11-18T04:03:24;100050.78;;;5.40;100.00
75594;BME280;64176;49.156;7.810;2023-11-18T04:06:08;100053.63;;;5.47;100.00
75594;BME280;64176;49.156;7.810;2023-11-18T04:08:52;100053.50;;;5.44;100.00
75594;BME280;64176;49.156;7.810;2023-11-18T04:11:37;100049.94;;;5.41;100.00
75594;BME280;64176;49.156;7.810;2023-11-18T04:14:22;100034.13;;;5.30;100.00
75594;BME280;64176;49.156;7.810;2023-11-18T04:17:09;100041.72;;;5.27;100.00
75594;BME280;64176;49.156;7.810;2023-11-18T04:19:53;100042.47;;;5.25;100.00
75594;BME280;64176;49.156;7.810;2023-11-18T04:22:40;100030.72;;;5.30;100.00
75594;BME280;64176;49.156;7.810;2023-11-18T04:25:25;100029.31;;;5.16;100.00
75594;BME280;64176;49.156;7.810;2023-11-18T04:28:09;100026.28;;;5.26;100.00
75594;BME280;64176;49.156;7.810;2023-11-18T04:30:54;100033.03;;;5.24;100.00
75594;BME280;64176;49.156;7.810;2023-11-18T04:33:40;100031.22;;;5.21;100.00
75594;BME280;64176;49.156;7.810;2023-11-18T04:36:24;100036.53;;;5.26;100.00
75594;BME280;64176;49.156;7.810;2023-11-18T04:39:10;100027.78;;;5.21;100.00
75594;BME280;64176;49.156;7.810;2023-11-18T04:42:02;100023.66;;;5.24;100.00
75594;BME280;64176;49.156;7.810;2023-11-18T04:44:46;100014.22;;;5.23;100.00
75594;BME280;64176;49.156;7.810;2023-11-18T04:47:30;100032.91;;;5.21;100.00
75594;BME280;64176;49.156;7.810;2023-11-18T04:50:14;100032.16;;;5.23;100.00
75594;BME280;64176;49.156;7.810;2023-11-18T04:52:59;100022.97;;;5.28;100.00
75594;BME280;64176;49.156;7.810;2023-11-18T04:55:43;100035.66;;;5.25;100.00
75594;BME280;64176;49.156;7.810;2023-11-18T04:58:29;100035.53;;;5.22;100.00
75594;BME280;64176;49.156;7.810;2023-11-18T05:01:18;100022.50;;;5.16;100.00
75594;BME280;64176;49.156;7.810;2023-11-18T05:04:03;100035.53;;;5.22;100.00
75594;BME280;64176;49.156;7.810;2023-11-18T05:06:47;100036.47;;;5.24;100.00
75594;BME280;64176;49.156;7.810;2023-11-18T05:09:31;100021.69;;;5.17;100.00
75594;BME280;64176;49.156;7.810;2023-11-18T05:12:17;100010.78;;;5.23;100.00
75594;BME280;64176;49.156;7.810;2023-11-18T05:15:04;100014.47;;;5.29;100.00
75594;BME280;64176;49.156;7.810;2023-11-18T05:17:52;100007.53;;;5.27;100.00
75594;BME280;64176;49.156;7.810;2023-11-18T05:20:36;100019.19;;;5.41;100.00
75594;BME280;64176;49.156;7.810;2023-11-18T05:23:23;100016.78;;;5.45;100.00
75594;BME280;64176;49.156;7.810;2023-11-18T05:26:07;100005.44;;;5.39;100.00
75594;BME280;64176;49.156;7.810;2023-11-18T05:28:52;100003.69;;;5.38;100.00
75594;BME280;64176;49.156;7.810;2023-11-18T05:31:38;100010.97;;;5.27;100.00
75594;BME280;64176;49.156;7.810;2023-11-18T05:34:28;100016.38;;;5.35;100.00
75594;BME280;64176;49.156;7.810;2023-11-18T05:37:12;100015.28;;;5.28;100.00
75594;BME280;64176;49.156;7.810;2023-11-18T05:39:56;100013.06;;;5.37;100.00
75594;BME280;64176;49.156;7.810;2023-11-18T05:42:49;100000.53;;;5.45;100.00
75594;BME280;64176;49.156;7.810;2023-11-18T05:45:35;99998.03;;;5.46;100.00
75594;BME280;64176;49.156;7.810;2023-11-18T05:48:39;99984.81;;;5.36;100.00
75594;BME280;64176;49.156;7.810;2023-11-18T05:51:29;99982.38;;;5.39;100.00
75594;BME280;64176;49.156;7.810;2023-11-18T05:54:13;99977.81;;;5.32;100.00
75594;BME280;64176;49.156;7.810;2023-11-18T05:56:56;99993.59;;;5.42;100.00
75594;BME280;64176;49.156;7.810;2023-11-18T05:59:43;99998.09;;;5.48;100.00
75594;BME280;64176;49.156;7.810;2023-11-18T06:02:27;99989.25;;;5.40;100.00
75594;BME280;64176;49.156;7.810;2023-11-18T06:05:11;99996.13;;;5.41;100.00
75594;BME280;64176;49.156;7.810;2023-11-18T06:07:56;99995.34;;;5.43;100.00
75594;BME280;64176;49.156;7.810;2023-11-18T06:10:42;99995.28;;;5.42;100.00
75594;BME280;64176;49.156;7.810;2023-11-18T06:13:28;99989.19;;;5.38;100.00
75594;BME280;64176;49.156;7.810;2023-11-18T06:16:19;99991.00;;;5.41;100.00
75594;BME280;64176;49.156;7.810;2023-11-18T06:19:06;99984.28;;;5.44;100.00
75594;BME280;64176;49.156;7.810;2023-11-18T06:21:50;99984.94;;;5.39;100.00
75594;BME280;64176;49.156;7.810;2023-11-18T06:24:34;99980.44;;;5.33;100.00
75594;BME280;64176;49.156;7.810;2023-11-18T06:27:20;99983.25;;;5.39;100.00
75594;BME280;64176;49.156;7.810;2023-11-18T06:30:07;99981.31;;;5.34;100.00
75594;BME280;64176;49.156;7.810;2023-11-18T06:32:51;99967.47;;;5.29;100.00
75594;BME280;64176;49.156;7.810;2023-11-18T06:35:38;99967.56;;;5.32;100.00
75594;BME280;64176;49.156;7.810;2023-11-18T06:38:27;99961.53;;;5.30;100.00
75594;BME280;64176;49.156;7.810;2023-11-18T06:41:14;99981.50;;;5.38;100.00
75594;BME280;64176;49.156;7.810;2023-11-18T06:44:02;99984.16;;;5.41;100.00
75594;BME280;64176;49.156;7.810;2023-11-18T06:47:03;99986.44;;;5.34;100.00
75594;BME280;64176;49.156;7.810;2023-11-18T06:49:52;99990.56;;;5.30;100.00
75594;BME280;64176;49.156;7.810;2023-11-18T06:52:37;99980.63;;;5.38;100.00
75594;BME280;64176;49.156;7.810;2023-11-18T06:55:22;99987.84;;;5.48;100.00
75594;BME280;64176;49.156;7.810;2023-11-18T06:58:10;99987.03;;;5.49;100.00
75594;BME280;64176;49.156;7.810;2023-11-18T07:00:54;99980.22;;;5.49;100.00
75594;BME280;64176;49.156;7.810;2023-11-18T07:03:40;99987.34;;;5.58;100.00
75594;BME280;64176;49.156;7.810;2023-11-18T07:06:27;99989.75;;;5.54;100.00
75594;BME280;64176;49.156;7.810;2023-11-18T07:09:11;99978.28;;;5.44;100.00
75594;BME280;64176;49.156;7.810;2023-11-18T07:12:03;99993.25;;;5.56;100.00
75594;BME280;64176;49.156;7.810;2023-11-18T07:14:48;99995.34;;;5.43;100.00
75594;BME280;64176;49.156;7.810;2023-11-18T07:17:32;99997.16;;;5.46;100.00
75594;BME280;64176;49.156;7.810;2023-11-18T07:20:18;99999.97;;;5.52;100.00
75594;BME280;64176;49.156;7.810;2023-11-18T07:23:05;99980.28;;;5.51;100.00
75594;BME280;64176;49.156;7.810;2023-11-18T07:25:49;99974.47;;;5.57;100.00
75594;BME280;64176;49.156;7.810;2023-11-18T07:28:33;99981.19;;;5.53;100.00
75594;BME280;64176;49.156;7.810;2023-11-18T07:31:25;99973.59;;;5.56;100.00
75594;BME280;64176;49.156;7.810;2023-11-18T07:34:09;99979.03;;;5.41;100.00
75594;BME280;64176;49.156;7.810;2023-11-18T07:36:55;99979.50;;;5.54;100.00
75594;BME280;64176;49.156;7.810;2023-11-18T07:39:42;99984.03;;;5.61;100.00
75594;BME280;64176;49.156;7.810;2023-11-18T07:42:31;99992.50;;;5.58;100.00
75594;BME280;64176;49.156;7.810;2023-11-18T07:45:18;100013.75;;;5.56;100.00
75594;BME280;64176;49.156;7.810;2023-11-18T07:48:04;99997.63;;;5.58;100.00
75594;BME280;64176;49.156;7.810;2023-11-18T07:50:52;99998.88;;;5.69;100.00
75594;BME280;64176;49.156;7.810;2023-11-18T07:53:38;100008.47;;;5.75;100.00
75594;BME280;64176;49.156;7.810;2023-11-18T07:56:24;99996.53;;;5.75;100.00
75594;BME280;64176;49.156;7.810;2023-11-18T07:59:11;99993.22;;;5.78;100.00
75594;BME280;64176;49.156;7.810;2023-11-18T08:02:02;100001.09;;;5.82;100.00
75594;BME280;64176;49.156;7.810;2023-11-18T08:04:46;100001.09;;;5.82;100.00
75594;BME280;64176;49.156;7.810;2023-11-18T08:07:30;99992.50;;;5.82;100.00
75594;BME280;64176;49.156;7.810;2023-11-18T08:10:14;99988.25;;;5.82;100.00
75594;BME280;64176;49.156;7.810;2023-11-18T08:13:06;99984.09;;;5.86;100.00
75594;BME280;64176;49.156;7.810;2023-11-18T08:15:56;99983.94;;;5.81;100.00
75594;BME280;64176;49.156;7.810;2023-11-18T08:18:41;99991.81;;;5.64;100.00
75594;BME280;64176;49.156;7.810;2023-11-18T08:21:25;99985.63;;;5.81;100.00
75594;BME280;64176;49.156;7.810;2023-11-18T08:24:09;99969.84;;;5.93;100.00
75594;BME280;64176;49.156;7.810;2023-11-18T08:26:53;99981.03;;;5.95;100.00
75594;BME280;64176;49.156;7.810;2023-11-18T08:29:38;99977.94;;;5.81;100.00
75594;BME280;64176;49.156;7.810;2023-11-18T08:32:26;99972.34;;;5.91;100.00
75594;BME280;64176;49.156;7.810;2023-11-18T08:35:15;99963.91;;;5.94;100.00
75594;BME280;64176;49.156;7.810;2023-11-18T08:38:02;99960.56;;;5.96;100.00
75594;BME280;64176;49.156;7.810;2023-11-18T08:40:49;99955.69;;;6.04;100.00
75594;BME280;64176;49.156;7.810;2023-11-18T08:43:35;99952.56;;;6.12;100.00
75594;BME280;64176;49.156;7.810;2023-11-18T08:46:19;99954.25;;;6.12;100.00
75594;BME280;64176;49.156;7.810;2023-11-18T08:49:03;99957.94;;;6.20;100.00
75594;BME280;64176;49.156;7.810;2023-11-18T08:51:54;99965.72;;;6.21;100.00
75594;BME280;64176;49.156;7.810;2023-11-18T08:54:42;99965.75;;;6.23;100.00
75594;BME280;64176;49.156;7.810;2023-11-18T08:57:52;99971.06;;;6.28;100.00
75594;BME280;64176;49.156;7.810;2023-11-18T09:00:42;99972.28;;;6.39;100.00
75594;BME280;64176;49.156;7.810;2023-11-18T09:03:47;99950.84;;;6.37;100.00
75594;BME280;64176;49.156;7.810;2023-11-18T09:06:36;99954.16;;;6.34;100.00
75594;BME280;64176;49.156;7.810;2023-11-18T09:09:25;99963.44;;;6.31;100.00
75594;BME280;64176;49.156;7.810;2023-11-18T09:12:12;99954.84;;;6.29;100.00
75594;BME280;64176;49.156;7.810;2023-11-18T09:15:01;99963.63;;;6.35;100.00
75594;BME280;64176;49.156;7.810;2023-11-18T09:17:50;99970.59;;;6.39;100.00
75594;BME280;64176;49.156;7.810;2023-11-18T09:20:36;99971.38;;;6.37;100.00
75594;BME280;64176;49.156;7.810;2023-11-18T09:23:22;99977.09;;;6.55;100.00
75594;BME280;64176;49.156;7.810;2023-11-18T09:26:12;99975.53;;;6.58;100.00
75594;BME280;64176;49.156;7.810;2023-11-18T09:28:56;99964.25;;;6.55;100.00
75594;BME280;64176;49.156;7.810;2023-11-18T09:31:48;99971.31;;;6.61;100.00
75594;BME280;64176;49.156;7.810;2023-11-18T09:34:36;99973.78;;;6.57;100.00
75594;BME280;64176;49.156;7.810;2023-11-18T09:37:19;99975.28;;;6.51;100.00
75594;BME280;64176;49.156;7.810;2023-11-18T09:40:07;99982.28;;;6.56;100.00
75594;BME280;64176;49.156;7.810;2023-11-18T09:42:58;99988.59;;;6.66;100.00
75594;BME280;64176;49.156;7.810;2023-11-18T09:45:43;99992.03;;;6.67;100.00
75594;BME280;64176;49.156;7.810;2023-11-18T09:48:29;99982.66;;;6.67;100.00
75594;BME280;64176;49.156;7.810;2023-11-18T09:51:15;99998.28;;;6.73;100.00
75594;BME280;64176;49.156;7.810;2023-11-18T09:54:11;99995.69;;;6.73;100.00
75594;BME280;64176;49.156;7.810;2023-11-18T10:00:02;99996.53;;;6.72;100.00
75594;BME280;64176;49.156;7.810;2023-11-18T10:03:04;99991.69;;;6.56;100.00
75594;BME280;64176;49.156;7.810;2023-11-18T10:05:52;99989.47;;;6.67;100.00
75594;BME280;64176;49.156;7.810;2023-11-18T10:08:39;99982.50;;;6.63;100.00
75594;BME280;64176;49.156;7.810;2023-11-18T10:11:23;99990.25;;;6.64;100.00
75594;BME280;64176;49.156;7.810;2023-11-18T10:14:07;99980.78;;;6.63;100.00
75594;BME280;64176;49.156;7.810;2023-11-18T10:16:55;99985.31;;;6.70;100.00
75594;BME280;64176;49.156;7.810;2023-11-18T10:19:55;99985.91;;;6.63;100.00
75594;BME280;64176;49.156;7.810;2023-11-18T10:22:40;99989.38;;;6.64;100.00
75594;BME280;64176;49.156;7.810;2023-11-18T10:25:24;99981.94;;;6.71;100.00
75594;BME280;64176;49.156;7.810;2023-11-18T10:28:21;99982.13;;;6.77;100.00
75594;BME280;64176;49.156;7.810;2023-11-18T10:31:07;99989.00;;;6.78;100.00
75594;BME280;64176;49.156;7.810;2023-11-18T10:33:54;99973.63;;;6.80;100.00
75594;BME280;64176;49.156;7.810;2023-11-18T10:36:38;99980.47;;;6.79;100.00
75594;BME280;64176;49.156;7.810;2023-11-18T10:39:22;99974.78;;;6.89;100.00
75594;BME280;64176;49.156;7.810;2023-11-18T10:42:11;99976.38;;;6.86;100.00
75594;BME280;64176;49.156;7.810;2023-11-18T10:45:03;99955.00;;;6.87;100.00
75594;BME280;64176;49.156;7.810;2023-11-18T10:47:49;99954.97;;;6.85;100.00
75594;BME280;64176;49.156;7.810;2023-11-18T10:50:36;99960.94;;;6.84;100.00
75594;BME280;64176;49.156;7.810;2023-11-18T10:53:22;99950.28;;;6.72;100.00
75594;BME280;64176;49.156;7.810;2023-11-18T10:56:16;99941.59;;;6.69;100.00
75594;BME280;64176;49.156;7.810;2023-11-18T10:59:05;99947.06;;;6.79;100.00
75594;BME280;64176;49.156;7.810;2023-11-18T11:01:54;99929.00;;;6.76;100.00
75594;BME280;64176;49.156;7.810;2023-11-18T11:04:47;99925.38;;;6.70;100.00
75594;BME280;64176;49.156;7.810;2023-11-18T11:07:33;99915.91;;;6.69;100.00
75594;BME280;64176;49.156;7.810;2023-11-18T11:10:17;99912.66;;;6.74;100.00
75594;BME280;64176;49.156;7.810;2023-11-18T11:13:09;99901.38;;;6.69;100.00
75594;BME280;64176;49.156;7.810;2023-11-18T11:15:54;99900.69;;;6.75;100.00
75594;BME280;64176;49.156;7.810;2023-11-18T11:18:47;99897.28;;;6.76;100.00
75594;BME280;64176;49.156;7.810;2023-11-18T11:21:50;99892.09;;;6.74;100.00
75594;BME280;64176;49.156;7.810;2023-11-18T11:24:59;99881.16;;;6.80;100.00
75594;BME280;64176;49.156;7.810;2023-11-18T11:28:08;99883.41;;;6.69;100.00
75594;BME280;64176;49.156;7.810;2023-11-18T11:34:23;99883.63;;;6.77;100.00
75594;BME280;64176;49.156;7.810;2023-11-18T11:37:10;99881.94;;;6.77;100.00
75594;BME280;64176;49.156;7.810;2023-11-18T11:39:58;99882.91;;;6.81;100.00
75594;BME280;64176;49.156;7.810;2023-11-18T11:42:45;99864.78;;;6.76;100.00
75594;BME280;64176;49.156;7.810;2023-11-18T11:45:30;99872.84;;;6.88;100.00
75594;BME280;64176;49.156;7.810;2023-11-18T11:48:15;99871.16;;;6.89;100.00
75594;BME280;64176;49.156;7.810;2023-11-18T11:54:11;99874.75;;;6.94;100.00
75594;BME280;64176;49.156;7.810;2023-11-18T11:57:02;99865.16;;;6.88;100.00
75594;BME280;64176;49.156;7.810;2023-11-18T12:02:36;99849.13;;;6.97;100.00
75594;BME280;64176;49.156;7.810;2023-11-18T12:05:25;99856.06;;;7.00;100.00
75594;BME280;64176;49.156;7.810;2023-11-18T12:08:09;99857.13;;;7.06;100.00
75594;BME280;64176;49.156;7.810;2023-11-18T12:10:56;99855.22;;;7.01;100.00
75594;BME280;64176;49.156;7.810;2023-11-18T12:14:04;99849.16;;;6.99;100.00
75594;BME280;64176;49.156;7.810;2023-11-18T12:17:16;99840.69;;;7.01;100.00
75594;BME280;64176;49.156;7.810;2023-11-18T12:20:43;99840.63;;;7.00;100.00
75594;BME280;64176;49.156;7.810;2023-11-18T12:24:16;99834.66;;;7.01;100.00
75594;BME280;64176;49.156;7.810;2023-11-18T12:27:04;99823.47;;;6.99;100.00
75594;BME280;64176;49.156;7.810;2023-11-18T12:29:54;99808.19;;;7.03;100.00
75594;BME280;64176;49.156;7.810;2023-11-18T12:33:04;99808.19;;;7.03;100.00
75594;BME280;64176;49.156;7.810;2023-11-18T12:36:22;99799.47;;;6.98;100.00
75594;BME280;64176;49.156;7.810;2023-11-18T12:40:00;99788.13;;;6.90;100.00
75594;BME280;64176;49.156;7.810;2023-11-18T12:43:00;99784.16;;;7.01;100.00
75594;BME280;64176;49.156;7.810;2023-11-18T12:48:49;99775.53;;;6.99;100.00
75594;BME280;64176;49.156;7.810;2023-11-18T12:51:35;99771.41;;;7.04;100.00
75594;BME280;64176;49.156;7.810;2023-11-18T12:54:21;99766.41;;;7.10;100.00
75594;BME280;64176;49.156;7.810;2023-11-18T12:57:11;99758.56;;;7.04;100.00
75594;BME280;64176;49.156;7.810;2023-11-18T12:59:59;99753.31;;;7.01;100.00
75594;BME280;64176;49.156;7.810;2023-11-18T13:02:44;99748.50;;;7.13;100.00
75594;BME280;64176;49.156;7.810;2023-11-18T13:05:28;99754.44;;;7.11;100.00
75594;BME280;64176;49.156;7.810;2023-11-18T13:08:15;99744.25;;;7.14;100.00
75594;BME280;64176;49.156;7.810;2023-11-18T13:10:59;99725.16;;;7.04;100.00
75594;BME280;64176;49.156;7.810;2023-11-18T13:13:48;99717.53;;;7.09;100.00
75594;BME280;64176;49.156;7.810;2023-11-18T13:16:34;99716.84;;;7.14;100.00
75594;BME280;64176;49.156;7.810;2023-11-18T13:23:25;99673.78;;;7.06;100.00
75594;BME280;64176;49.156;7.810;2023-11-18T13:26:09;99692.09;;;7.18;100.00
75594;BME280;64176;49.156;7.810;2023-11-18T13:28:55;99683.44;;;7.14;100.00
75594;BME280;64176;49.156;7.810;2023-11-18T13:31:39;99666.34;;;7.16;100.00
75594;BME280;64176;49.156;7.810;2023-11-18T13:34:25;99654.25;;;7.12;100.00
75594;BME280;64176;49.156;7.810;2023-11-18T13:37:14;99655.16;;;7.14;100.00
75594;BME280;64176;49.156;7.810;2023-11-18T13:40:03;99662.97;;;7.17;100.00
75594;BME280;64176;49.156;7.810;2023-11-18T13:43:01;99662.97;;;7.17;100.00
75594;BME280;64176;49.156;7.810;2023-11-18T13:45:51;99644.94;;;7.16;100.00
75594;BME280;64176;49.156;7.810;2023-11-18T13:48:38;99644.88;;;7.14;100.00
75594;BME280;64176;49.156;7.810;2023-11-18T13:51:23;99658.50;;;7.12;100.00
75594;BME280;64176;49.156;7.810;2023-11-18T13:54:08;99653.47;;;7.15;100.00
75594;BME280;64176;49.156;7.810;2023-11-18T13:56:53;99655.25;;;7.19;100.00
75594;BME280;64176;49.156;7.810;2023-11-18T13:59:38;99661.25;;;7.18;100.00
75594;BME280;64176;49.156;7.810;2023-11-18T14:02:30;99661.25;;;7.18;100.00
75594;BME280;64176;49.156;7.810;2023-11-18T14:05:18;99667.06;;;7.11;100.00
75594;BME280;64176;49.156;7.810;2023-11-18T14:08:03;99654.97;;;7.07;100.00
75594;BME280;64176;49.156;7.810;2023-11-18T14:10:52;99657.69;;;7.13;100.00
75594;BME280;64176;49.156;7.810;2023-11-18T14:13:36;99655.16;;;7.14;100.00
75594;BME280;64176;49.156;7.810;2023-11-18T14:16:23;99669.75;;;7.15;100.00
75594;BME280;64176;49.156;7.810;2023-11-18T14:19:07;99666.22;;;7.12;100.00
75594;BME280;64176;49.156;7.810;2023-11-18T14:21:52;99667.06;;;7.11;100.00
75594;BME280;64176;49.156;7.810;2023-11-18T14:24:36;99680.06;;;7.17;100.00
75594;BME280;64176;49.156;7.810;2023-11-18T14:27:20;99679.13;;;7.13;100.00
75594;BME280;64176;49.156;7.810;2023-11-18T14:30:05;99671.22;;;7.07;100.00
75594;BME280;64176;49.156;7.810;2023-11-18T14:32:52;99672.03;;;7.05;100.00
75594;BME280;64176;49.156;7.810;2023-11-18T14:35:36;99666.97;;;7.08;100.00
75594;BME280;64176;49.156;7.810;2023-11-18T14:38:26;99661.78;;;7.05;100.00
75594;BME280;64176;49.156;7.810;2023-11-18T14:41:10;99647.72;;;6.92;100.00
75594;BME280;64176;49.156;7.810;2023-11-18T14:43:55;99646.97;;;6.96;100.00
75594;BME280;64176;49.156;7.810;2023-11-18T14:46:39;99652.22;;;7.01;100.00
75594;BME280;64176;49.156;7.810;2023-11-18T14:49:25;99661.56;;;6.97;100.00
75594;BME280;64176;49.156;7.810;2023-11-18T14:52:09;99656.41;;;6.97;100.00
75594;BME280;64176;49.156;7.810;2023-11-18T14:54:53;99654.56;;;6.91;100.00
75594;BME280;64176;49.156;7.810;2023-11-18T14:57:41;99646.81;;;6.90;100.00
75594;BME280;64176;49.156;7.810;2023-11-18T15:00:25;99639.09;;;6.90;100.00
75594;BME280;64176;49.156;7.810;2023-11-18T15:03:11;99637.44;;;6.92;100.00
75594;BME280;64176;49.156;7.810;2023-11-18T15:05:55;99629.06;;;6.99;100.00